sensor_id;sensor_type;location;lat;lon;timestamp;pressure;altitude;pressure_sealevel;temperature;humidity
16431;BME280;8325;49.284;7.238;2023-05-13T04:03:44;98851.66;;;8.57;100.00
16431;BME280;8325;49.284;7.238;2023-05-13T04:07:56;98852.75;;;8.55;100.00
16431;BME280;8325;49.284;7.238;2023-05-13T04:12:08;98854.38;;;8.56;100.00
16431;BME280;8325;49.284;7.238;2023-05-13T04:16:19;98860.88;;;8.51;100.00
16431;BME280;8325;49.284;7.238;2023-05-13T04:20:31;98857.84;;;8.56;100.00
16431;BME280;8325;49.284;7.238;2023-05-13T04:24:43;98864.34;;;8.60;100.00
16431;BME280;8325;49.284;7.238;2023-05-13T04:28:54;98863.25;;;8.63;100.00
16431;BME280;8325;49.284;7.238;2023-05-13T04:33:08;98867.31;;;8.65;100.00
16431;BME280;8325;49.284;7.238;2023-05-13T04:37:22;98876.28;;;8.71;100.00
16431;BME280;8325;49.284;7.238;2023-05-13T04:41:36;98873.44;;;8.82;100.00
16431;BME280;8325;49.284;7.238;2023-05-13T04:45:48;98874.13;;;8.92;100.00
16431;BME280;8325;49.284;7.238;2023-05-13T04:50:00;98877.72;;;8.91;100.00
16431;BME280;8325;49.284;7.238;2023-05-13T04:54:14;98883.22;;;8.88;100.00
16431;BME280;8325;49.284;7.238;2023-05-13T04:58:28;98882.63;;;8.94;100.00
16431;BME280;8325;49.284;7.238;2023-05-13T05:02:40;98884.59;;;9.01;100.00
16431;BME280;8325;49.284;7.238;2023-05-13T05:06:52;98890.16;;;9.06;100.00
16431;BME280;8325;49.284;7.238;2023-05-13T05:11:04;98898.84;;;9.14;100.00
16431;BME280;8325;49.284;7.238;2023-05-13T05:15:18;98905.88;;;9.22;100.00
16431;BME280;8325;49.284;7.238;2023-05-13T05:19:32;98911.13;;;9.38;100.00
16431;BME280;8325;49.284;7.238;2023-05-13T05:23:44;98912.31;;;9.44;100.00
16431;BME280;8325;49.284;7.238;2023-05-13T05:27:56;98911.72;;;9.58;100.00
16431;BME280;8325;49.284;7.238;2023-05-13T05:32:08;98921.06;;;9.77;100.00
16431;BME280;8325;49.284;7.238;2023-05-13T05:36:21;98916.84;;;9.93;100.00
16431;BME280;8325;49.284;7.238;2023-05-13T05:40:36;98913.56;;;11.75;100.00
16431;BME280;8325;49.284;7.238;2023-05-13T05:44:49;98901.31;;;16.28;79.88
16431;BME280;8325;49.284;7.238;2023-05-13T05:49:02;98902.72;;;18.57;66.37
16431;BME280;8325;49.284;7.238;2023-05-13T05:53:16;98905.97;;;20.30;60.90
16431;BME280;8325;49.284;7.238;2023-05-13T05:57:29;98903.28;;;21.76;56.46
16431;BME280;8325;49.284;7.238;2023-05-13T06:01:40;98902.56;;;23.82;49.97
16431;BME280;8325;49.284;7.238;2023-05-13T06:05:53;98906.44;;;23.25;49.31
16431;BME280;8325;49.284;7.238;2023-05-13T06:10:05;98903.78;;;24.01;47.62
16431;BME280;8325;49.284;7.238;2023-05-13T06:14:19;98910.78;;;24.07;47.54
16431;BME280;8325;49.284;7.238;2023-05-13T06:18:31;98905.41;;;24.34;46.23
16431;BME280;8325;49.284;7.238;2023-05-13T06:22:42;98908.09;;;24.02;46.16
16431;BME280;8325;49.284;7.238;2023-05-13T06:26:54;98912.13;;;23.34;47.32
16431;BME280;8325;49.284;7.238;2023-05-13T06:31:05;98908.22;;;23.19;47.76
16431;BME280;8325;49.284;7.238;2023-05-13T06:35:17;98911.13;;;22.62;49.43
16431;BME280;8325;49.284;7.238;2023-05-13T06:39:29;98907.50;;;22.51;50.28
16431;BME280;8325;49.284;7.238;2023-05-13T06:43:40;98907.16;;;21.05;53.44
16431;BME280;8325;49.284;7.238;2023-05-13T06:48:04;98909.34;;;19.65;55.97
16431;BME280;8325;49.284;7.238;2023-05-13T06:52:16;98913.84;;;18.66;61.33
16431;BME280;8325;49.284;7.238;2023-05-13T06:56:29;98908.75;;;18.14;62.40
16431;BME280;8325;49.284;7.238;2023-05-13T07:00:40;98907.34;;;17.74;61.64
16431;BME280;8325;49.284;7.238;2023-05-13T07:04:52;98908.09;;;17.36;64.33
16431;BME280;8325;49.284;7.238;2023-05-13T07:09:03;98913.66;;;17.14;65.69
16431;BME280;8325;49.284;7.238;2023-05-13T07:13:19;98918.63;;;17.49;65.10
16431;BME280;8325;49.284;7.238;2023-05-13T07:17:31;98919.75;;;18.11;64.44
16431;BME280;8325;49.284;7.238;2023-05-13T07:21:43;98911.72;;;17.93;63.76
16431;BME280;8325;49.284;7.238;2023-05-13T07:25:54;98911.91;;;16.82;67.62
16431;BME280;8325;49.284;7.238;2023-05-13T07:30:07;98913.22;;;17.17;67.71
16431;BME280;8325;49.284;7.238;2023-05-13T07:34:18;98906.63;;;16.82;67.12
16431;BME280;8325;49.284;7.238;2023-05-13T07:38:30;98905.47;;;17.29;66.83
16431;BME280;8325;49.284;7.238;2023-05-13T07:42:41;98923.03;;;16.97;65.58
16431;BME280;8325;49.284;7.238;2023-05-13T07:46:53;98911.88;;;16.28;67.83
16431;BME280;8325;49.284;7.238;2023-05-13T07:51:04;98901.72;;;16.19;68.49
16431;BME280;8325;49.284;7.238;2023-05-13T07:55:16;98904.00;;;16.42;68.64
16431;BME280;8325;49.284;7.238;2023-05-13T07:59:28;98900.50;;;16.68;66.70
16431;BME280;8325;49.284;7.238;2023-05-13T08:03:40;98908.44;;;16.48;67.68
16431;BME280;8325;49.284;7.238;2023-05-13T08:07:51;98905.59;;;16.49;66.54
16431;BME280;8325;49.284;7.238;2023-05-13T08:12:03;98893.84;;;16.78;67.38
16431;BME280;8325;49.284;7.238;2023-05-13T08:16:15;98891.78;;;16.67;63.02
16431;BME280;8325;49.284;7.238;2023-05-13T08:20:26;98895.03;;;16.56;63.32
16431;BME280;8325;49.284;7.238;2023-05-13T08:24:40;98902.78;;;16.44;62.33
16431;BME280;8325;49.284;7.238;2023-05-13T08:28:53;98896.69;;;16.24;63.95
16431;BME280;8325;49.284;7.238;2023-05-13T08:33:05;98903.56;;;16.31;62.53
16431;BME280;8325;49.284;7.238;2023-05-13T08:37:18;98901.97;;;16.57;63.18
16431;BME280;8325;49.284;7.238;2023-05-13T08:41:30;98903.59;;;16.38;62.17
16431;BME280;8325;49.284;7.238;2023-05-13T08:45:46;98910.66;;;16.18;63.85
16431;BME280;8325;49.284;7.238;2023-05-13T08:49:58;98907.63;;;16.41;62.35
16431;BME280;8325;49.284;7.238;2023-05-13T08:54:10;98891.41;;;16.57;62.02
16431;BME280;8325;49.284;7.238;2023-05-13T08:58:22;98895.44;;;16.73;62.70
16431;BME280;8325;49.284;7.238;2023-05-13T09:02:33;98889.78;;;16.83;59.66
16431;BME280;8325;49.284;7.238;2023-05-13T09:06:48;98900.94;;;16.85;59.11
16431;BME280;8325;49.284;7.238;2023-05-13T09:11:00;98889.38;;;16.72;57.75
16431;BME280;8325;49.284;7.238;2023-05-13T09:15:16;98890.81;;;16.82;58.92
16431;BME280;8325;49.284;7.238;2023-05-13T09:19:29;98883.63;;;17.02;57.69
16431;BME280;8325;49.284;7.238;2023-05-13T09:23:41;98879.59;;;17.06;57.99
16431;BME280;8325;49.284;7.238;2023-05-13T09:27:57;98878.47;;;17.34;57.59
16431;BME280;8325;49.284;7.238;2023-05-13T09:32:09;98886.53;;;17.45;56.65
16431;BME280;8325;49.284;7.238;2023-05-13T09:36:21;98870.13;;;17.37;57.41
16431;BME280;8325;49.284;7.238;2023-05-13T09:40:33;98872.09;;;17.48;55.99
16431;BME280;8325;49.284;7.238;2023-05-13T09:44:45;98889.50;;;17.62;55.69
16431;BME280;8325;49.284;7.238;2023-05-13T09:48:57;98878.28;;;17.67;55.67
16431;BME280;8325;49.284;7.238;2023-05-13T09:53:10;98876.44;;;17.74;54.89
16431;BME280;8325;49.284;7.238;2023-05-13T09:57:22;98868.72;;;17.72;54.36
16431;BME280;8325;49.284;7.238;2023-05-13T10:01:34;98876.81;;;17.84;54.86
16431;BME280;8325;49.284;7.238;2023-05-13T10:05:47;98871.84;;;18.01;54.16
16431;BME280;8325;49.284;7.238;2023-05-13T10:10:02;98871.84;;;18.01;53.73
16431;BME280;8325;49.284;7.238;2023-05-13T10:14:14;98872.91;;;18.18;51.29
16431;BME280;8325;49.284;7.238;2023-05-13T10:18:27;98863.47;;;18.54;52.54
16431;BME280;8325;49.284;7.238;2023-05-13T10:22:39;98872.69;;;18.45;49.53
16431;BME280;8325;49.284;7.238;2023-05-13T10:26:51;98853.78;;;18.67;52.52
16431;BME280;8325;49.284;7.238;2023-05-13T10:31:03;98857.00;;;18.69;52.10
16431;BME280;8325;49.284;7.238;2023-05-13T10:35:16;98856.91;;;18.82;48.53
16431;BME280;8325;49.284;7.238;2023-05-13T10:44:23;98853.34;;;18.70;50.69
16431;BME280;8325;49.284;7.238;2023-05-13T10:52:55;98848.22;;;18.50;52.02
16431;BME280;8325;49.284;7.238;2023-05-13T10:57:08;98845.78;;;18.30;51.10
16431;BME280;8325;49.284;7.238;2023-05-13T11:01:26;98844.34;;;18.77;49.90
16431;BME280;8325;49.284;7.238;2023-05-13T11:05:44;98845.13;;;18.78;47.61
16431;BME280;8325;49.284;7.238;2023-05-13T11:09:58;98833.47;;;18.85;45.71
16431;BME280;8325;49.284;7.238;2023-05-13T11:14:18;98831.59;;;19.23;48.14
16431;BME280;8325;49.284;7.238;2023-05-13T11:18:33;98824.97;;;19.32;48.63
16431;BME280;8325;49.284;7.238;2023-05-13T11:22:45;98814.47;;;19.55;48.04
16431;BME280;8325;49.284;7.238;2023-05-13T11:26:58;98824.81;;;18.97;49.37
16431;BME280;8325;49.284;7.238;2023-05-13T11:31:15;98830.97;;;19.39;49.51
16431;BME280;8325;49.284;7.238;2023-05-13T11:35:31;98824.34;;;19.18;48.46
16431;BME280;8325;49.284;7.238;2023-05-13T11:39:43;98820.88;;;18.99;49.20
16431;BME280;8325;49.284;7.238;2023-05-13T11:43:54;98819.41;;;18.67;49.36
16431;BME280;8325;49.284;7.238;2023-05-13T11:48:20;98812.41;;;18.54;49.51
16431;BME280;8325;49.284;7.238;2023-05-13T11:52:32;98827.03;;;18.31;50.02
16431;BME280;8325;49.284;7.238;2023-05-13T11:56:44;98825.50;;;18.24;50.23
16431;BME280;8325;49.284;7.238;2023-05-13T12:00:55;98826.19;;;18.12;49.68
16431;BME280;8325;49.284;7.238;2023-05-13T12:05:08;98820.63;;;18.21;50.14
16431;BME280;8325;49.284;7.238;2023-05-13T12:09:23;98824.22;;;18.08;49.82
16431;BME280;8325;49.284;7.238;2023-05-13T12:13:35;98826.00;;;18.14;49.33
16431;BME280;8325;49.284;7.238;2023-05-13T12:17:47;98811.72;;;18.40;49.86
16431;BME280;8325;49.284;7.238;2023-05-13T12:21:59;98800.44;;;18.70;49.37
16431;BME280;8325;49.284;7.238;2023-05-13T12:26:15;98807.06;;;18.97;46.57
16431;BME280;8325;49.284;7.238;2023-05-13T12:30:33;98807.78;;;19.23;46.64
16431;BME280;8325;49.284;7.238;2023-05-13T12:34:48;98791.31;;;19.93;47.06
16431;BME280;8325;49.284;7.238;2023-05-13T12:39:08;98792.13;;;20.05;45.30
16431;BME280;8325;49.284;7.238;2023-05-13T12:43:20;98789.38;;;20.35;45.16
16431;BME280;8325;49.284;7.238;2023-05-13T12:47:49;98783.03;;;20.36;43.57
16431;BME280;8325;49.284;7.238;2023-05-13T12:52:01;98784.41;;;20.27;40.94
16431;BME280;8325;49.284;7.238;2023-05-13T12:56:15;98782.09;;;20.19;41.48
16431;BME280;8325;49.284;7.238;2023-05-13T13:00:26;98795.56;;;19.94;41.91
16431;BME280;8325;49.284;7.238;2023-05-13T13:04:38;98768.97;;;20.24;42.03
16431;BME280;8325;49.284;7.238;2023-05-13T13:08:50;98781.88;;;20.32;40.66
16431;BME280;8325;49.284;7.238;2023-05-13T13:13:01;98776.56;;;20.32;37.82
16431;BME280;8325;49.284;7.238;2023-05-13T13:17:13;98790.75;;;20.61;39.16
16431;BME280;8325;49.284;7.238;2023-05-13T13:21:25;98799.63;;;20.67;40.22
16431;BME280;8325;49.284;7.238;2023-05-13T13:25:36;98793.66;;;20.60;40.22
16431;BME280;8325;49.284;7.238;2023-05-13T13:29:48;98789.00;;;19.96;42.56
16431;BME280;8325;49.284;7.238;2023-05-13T13:33:59;98776.13;;;20.35;42.37
16431;BME280;8325;49.284;7.238;2023-05-13T13:38:14;98774.81;;;20.50;43.38
16431;BME280;8325;49.284;7.238;2023-05-13T13:42:26;98773.34;;;20.54;41.47
16431;BME280;8325;49.284;7.238;2023-05-13T13:46:54;98762.28;;;20.57;42.70
16431;BME280;8325;49.284;7.238;2023-05-13T13:51:05;98760.41;;;20.22;42.84
16431;BME280;8325;49.284;7.238;2023-05-13T13:55:18;98777.25;;;19.92;43.80
16431;BME280;8325;49.284;7.238;2023-05-13T13:59:30;98765.97;;;19.55;44.32
16431;BME280;8325;49.284;7.238;2023-05-13T14:03:42;98754.19;;;19.81;43.54
16431;BME280;8325;49.284;7.238;2023-05-13T14:07:54;98743.03;;;20.26;42.48
16431;BME280;8325;49.284;7.238;2023-05-13T14:12:06;98745.41;;;20.39;40.94
16431;BME280;8325;49.284;7.238;2023-05-13T14:16:18;98771.44;;;19.72;42.20
16431;BME280;8325;49.284;7.238;2023-05-13T14:20:29;98773.75;;;19.38;43.75
16431;BME280;8325;49.284;7.238;2023-05-13T14:24:41;98775.00;;;19.05;44.60
16431;BME280;8325;49.284;7.238;2023-05-13T14:28:53;98778.09;;;19.02;45.41
16431;BME280;8325;49.284;7.238;2023-05-13T14:33:04;98784.25;;;18.96;44.87
16431;BME280;8325;49.284;7.238;2023-05-13T14:37:16;98777.16;;;18.78;45.15
16431;BME280;8325;49.284;7.238;2023-05-13T14:41:27;98796.41;;;18.85;45.96
16431;BME280;8325;49.284;7.238;2023-05-13T14:45:39;98789.94;;;19.00;48.11
16431;BME280;8325;49.284;7.238;2023-05-13T14:49:51;98800.97;;;19.27;49.97
16431;BME280;8325;49.284;7.238;2023-05-13T14:54:03;98790.38;;;19.27;49.58
16431;BME280;8325;49.284;7.238;2023-05-13T14:58:15;98791.56;;;19.31;50.29
16431;BME280;8325;49.284;7.238;2023-05-13T15:02:27;98791.75;;;19.78;50.20
16431;BME280;8325;49.284;7.238;2023-05-13T15:06:39;98788.44;;;20.06;48.59
16431;BME280;8325;49.284;7.238;2023-05-13T15:10:51;98790.53;;;19.62;47.59
16431;BME280;8325;49.284;7.238;2023-05-13T15:15:02;98786.00;;;19.21;48.29
16431;BME280;8325;49.284;7.238;2023-05-13T15:19:15;98783.38;;;18.84;49.11
16431;BME280;8325;49.284;7.238;2023-05-13T15:23:27;98774.56;;;18.90;49.47
16431;BME280;8325;49.284;7.238;2023-05-13T15:27:39;98787.34;;;18.93;50.43
16431;BME280;8325;49.284;7.238;2023-05-13T15:31:50;98785.53;;;18.94;49.78
16431;BME280;8325;49.284;7.238;2023-05-13T15:36:02;98796.50;;;18.79;50.25
16431;BME280;8325;49.284;7.238;2023-05-13T15:40:15;98841.25;;;18.12;50.22
16431;BME280;8325;49.284;7.238;2023-05-13T15:44:27;98828.59;;;17.12;52.02
16431;BME280;8325;49.284;7.238;2023-05-13T15:48:38;98825.13;;;17.12;52.97
16431;BME280;8325;49.284;7.238;2023-05-13T15:52:50;98827.25;;;16.90;54.18
16431;BME280;8325;49.284;7.238;2023-05-13T15:57:02;98815.53;;;16.79;55.65
16431;BME280;8325;49.284;7.238;2023-05-13T16:01:13;98815.13;;;16.75;57.00
16431;BME280;8325;49.284;7.238;2023-05-13T16:05:25;98801.19;;;17.13;56.98
16431;BME280;8325;49.284;7.238;2023-05-13T16:09:37;98795.09;;;17.13;56.91
16431;BME280;8325;49.284;7.238;2023-05-13T16:13:49;98796.56;;;17.02;57.46
16431;BME280;8325;49.284;7.238;2023-05-13T16:18:01;98793.84;;;17.22;57.65
16431;BME280;8325;49.284;7.238;2023-05-13T16:22:35;98786.97;;;17.14;57.24
16431;BME280;8325;49.284;7.238;2023-05-13T16:26:48;98788.84;;;17.00;58.45
16431;BME280;8325;49.284;7.238;2023-05-13T16:31:00;98787.88;;;16.88;58.23
16431;BME280;8325;49.284;7.238;2023-05-13T16:35:11;98773.69;;;16.83;58.44
16431;BME280;8325;49.284;7.238;2023-05-13T16:39:23;98776.13;;;16.91;58.80
16431;BME280;8325;49.284;7.238;2023-05-13T16:43:34;98774.91;;;16.87;59.04
16431;BME280;8325;49.284;7.238;2023-05-13T16:47:46;98781.41;;;16.91;58.89
16431;BME280;8325;49.284;7.238;2023-05-13T16:51:57;98772.88;;;16.89;59.23
16431;BME280;8325;49.284;7.238;2023-05-13T16:56:09;98776.56;;;16.81;59.04
16431;BME280;8325;49.284;7.238;2023-05-13T17:00:20;98785.88;;;16.70;59.96
16431;BME280;8325;49.284;7.238;2023-05-13T17:04:33;98787.59;;;16.45;61.17
16431;BME280;8325;49.284;7.238;2023-05-13T17:08:45;98789.00;;;16.47;61.23
16431;BME280;8325;49.284;7.238;2023-05-13T17:12:57;98788.78;;;16.49;62.23
16431;BME280;8325;49.284;7.238;2023-05-13T17:17:08;98796.09;;;16.33;62.46
16431;BME280;8325;49.284;7.238;2023-05-13T17:21:20;98780.63;;;16.64;61.68
16431;BME280;8325;49.284;7.238;2023-05-13T17:25:32;98782.84;;;16.73;60.96
16431;BME280;8325;49.284;7.238;2023-05-13T17:29:43;98787.13;;;16.81;61.38
16431;BME280;8325;49.284;7.238;2023-05-13T17:33:55;98790.31;;;16.90;61.18
16431;BME280;8325;49.284;7.238;2023-05-13T17:38:06;98780.56;;;16.97;60.47
16431;BME280;8325;49.284;7.238;2023-05-13T17:42:18;98784.88;;;16.85;60.73
16431;BME280;8325;49.284;7.238;2023-05-13T17:46:29;98784.25;;;16.83;60.53
16431;BME280;8325;49.284;7.238;2023-05-13T17:50:41;98773.50;;;16.77;60.01
16431;BME280;8325;49.284;7.238;2023-05-13T17:54:52;98785.94;;;16.57;59.42
16431;BME280;8325;49.284;7.238;2023-05-13T17:59:05;98778.03;;;16.57;59.64
16431;BME280;8325;49.284;7.238;2023-05-13T18:03:17;98784.28;;;16.56;59.93
16431;BME280;8325;49.284;7.238;2023-05-13T18:07:29;98777.22;;;16.50;60.18
16431;BME280;8325;49.284;7.238;2023-05-13T18:11:41;98791.44;;;16.42;60.18
16431;BME280;8325;49.284;7.238;2023-05-13T18:15:52;98786.78;;;16.44;60.44
16431;BME280;8325;49.284;7.238;2023-05-13T18:20:04;98793.25;;;16.42;60.79
16431;BME280;8325;49.284;7.238;2023-05-13T18:24:16;98786.56;;;16.39;59.70
16431;BME280;8325;49.284;7.238;2023-05-13T18:28:28;98784.34;;;16.36;59.61
16431;BME280;8325;49.284;7.238;2023-05-13T18:32:39;98787.16;;;16.34;60.09
16431;BME280;8325;49.284;7.238;2023-05-13T18:36:52;98795.31;;;16.26;60.35
16431;BME280;8325;49.284;7.238;2023-05-13T18:41:04;98801.00;;;16.17;60.60
16431;BME280;8325;49.284;7.238;2023-05-13T18:45:16;98815.19;;;16.09;61.31
16431;BME280;8325;49.284;7.238;2023-05-13T18:49:28;98821.66;;;16.00;62.36
16431;BME280;8325;49.284;7.238;2023-05-13T18:53:40;98818.00;;;15.94;63.65
16431;BME280;8325;49.284;7.238;2023-05-13T18:57:51;98818.81;;;15.88;63.96
16431;BME280;8325;49.284;7.238;2023-05-13T19:02:03;98818.81;;;15.75;66.83
16431;BME280;8325;49.284;7.238;2023-05-13T19:06:15;98829.31;;;15.68;67.22
16431;BME280;8325;49.284;7.238;2023-05-13T19:10:26;98828.03;;;15.57;68.22
16431;BME280;8325;49.284;7.238;2023-05-13T19:14:38;98841.59;;;15.48;70.26
16431;BME280;8325;49.284;7.238;2023-05-13T19:18:50;98849.88;;;15.38;72.13
16431;BME280;8325;49.284;7.238;2023-05-13T19:23:01;98857.94;;;15.30;73.02
16431;BME280;8325;49.284;7.238;2023-05-13T19:27:13;98868.63;;;15.22;74.47
16431;BME280;8325;49.284;7.238;2023-05-13T19:31:24;98866.41;;;15.18;75.52
16431;BME280;8325;49.284;7.238;2023-05-13T19:35:37;98874.03;;;15.07;75.94
16431;BME280;8325;49.284;7.238;2023-05-13T19:39:48;98871.16;;;15.02;77.51
16431;BME280;8325;49.284;7.238;2023-05-13T19:44:00;98881.66;;;14.95;77.74
16431;BME280;8325;49.284;7.238;2023-05-13T19:48:12;98885.59;;;14.78;79.87
16431;BME280;8325;49.284;7.238;2023-05-13T19:52:24;98890.81;;;14.71;80.20
16431;BME280;8325;49.284;7.238;2023-05-13T19:56:49;98897.78;;;14.57;81.75
16431;BME280;8325;49.284;7.238;2023-05-13T20:13:13;98896.00;;;14.15;85.44
16431;BME280;8325;49.284;7.238;2023-05-13T20:17:26;98897.38;;;14.11;86.69
16431;BME280;8325;49.284;7.238;2023-05-13T20:21:37;98899.81;;;13.91;87.44
16431;BME280;8325;49.284;7.238;2023-05-13T20:25:50;98895.88;;;13.80;88.59
16431;BME280;8325;49.284;7.238;2023-05-13T20:30:02;98910.66;;;13.66;89.29
16431;BME280;8325;49.284;7.238;2023-05-13T20:34:14;98903.50;;;13.60;89.85
16431;BME280;8325;49.284;7.238;2023-05-13T20:38:28;98905.63;;;13.50;90.17
16431;BME280;8325;49.284;7.238;2023-05-13T20:42:40;98903.22;;;13.33;91.54
16431;BME280;8325;49.284;7.238;2023-05-13T20:46:51;98905.91;;;13.25;92.48
16431;BME280;8325;49.284;7.238;2023-05-13T20:51:04;98900.81;;;13.24;92.68
16431;BME280;8325;49.284;7.238;2023-05-13T20:55:16;98905.53;;;13.13;92.75
16431;BME280;8325;49.284;7.238;2023-05-13T20:59:29;98900.13;;;13.00;93.94
16431;BME280;8325;49.284;7.238;2023-05-13T21:03:41;98900.38;;;12.90;93.56
16431;BME280;8325;49.284;7.238;2023-05-13T21:07:56;98897.69;;;12.84;94.57
16431;BME280;8325;49.284;7.238;2023-05-13T21:12:07;98896.75;;;12.77;96.12
16431;BME280;8325;49.284;7.238;2023-05-13T21:16:19;98899.47;;;12.69;96.49
16431;BME280;8325;49.284;7.238;2023-05-13T21:20:31;98899.25;;;12.55;96.64
16431;BME280;8325;49.284;7.238;2023-05-13T21:24:45;98882.53;;;12.41;97.10
16431;BME280;8325;49.284;7.238;2023-05-13T21:28:56;98888.00;;;12.32;97.06
